createdAt,value
2018-10-05T00:01:01.282Z,7.50
2018-10-05T00:03:30.244Z,5.10
2018-10-05T00:05:59.248Z,5.80
2018-10-05T00:08:28.159Z,4.80
2018-10-05T00:10:57.122Z,5.00
2018-10-05T00:13:26.420Z,5.53
2018-10-05T00:15:55.415Z,4.47
2018-10-05T00:18:24.442Z,6.80
2018-10-05T00:20:53.587Z,3.80
2018-10-05T00:23:22.557Z,4.67
2018-10-05T00:25:52.198Z,6.23
2018-10-05T00:28:21.241Z,5.83
2018-10-05T00:30:50.168Z,5.73
2018-10-05T00:33:19.159Z,5.10
2018-10-05T00:35:48.152Z,4.20
2018-10-05T00:38:17.100Z,4.50
2018-10-05T00:40:46.090Z,6.37
2018-10-05T00:43:15.059Z,4.30
2018-10-05T00:45:43.968Z,4.03
2018-10-05T00:48:12.939Z,5.83
2018-10-05T00:50:42.368Z,5.50
2018-10-05T00:53:11.436Z,5.17
2018-10-05T00:55:40.332Z,5.80
2018-10-05T00:58:09.376Z,5.47
2018-10-05T01:00:38.329Z,6.47
2018-10-05T01:03:07.716Z,5.13
2018-10-05T01:05:37.117Z,5.10
2018-10-05T01:08:06.248Z,4.03
2018-10-05T01:10:35.326Z,5.60
2018-10-05T01:13:05.131Z,4.37
2018-10-05T01:15:34.139Z,4.43
2018-10-05T01:18:03.193Z,5.20
2018-10-05T01:20:32.668Z,5.93
2018-10-05T01:23:01.578Z,4.33
2018-10-05T01:25:30.569Z,4.53
2018-10-05T01:27:59.664Z,5.40
2018-10-05T01:30:28.676Z,4.87
2018-10-05T01:32:57.724Z,5.17
2018-10-05T01:35:26.979Z,5.30
2018-10-05T01:37:55.867Z,5.33
2018-10-05T01:40:24.775Z,4.03
2018-10-05T01:42:53.773Z,4.07
2018-10-05T01:45:22.737Z,3.50
2018-10-05T01:47:51.621Z,6.87
2018-10-05T01:50:20.557Z,5.33
2018-10-05T01:52:49.550Z,4.80
2018-10-05T01:55:18.634Z,6.07
2018-10-05T01:57:47.965Z,5.03
2018-10-05T02:00:16.818Z,6.03
2018-10-05T02:02:45.795Z,3.70
2018-10-05T02:05:14.878Z,4.47
2018-10-05T02:07:43.872Z,4.93
2018-10-05T02:10:12.810Z,3.97
2018-10-05T02:12:42.154Z,7.17
2018-10-05T02:15:11.122Z,4.53
2018-10-05T02:17:40.047Z,4.90
2018-10-05T02:20:09.060Z,5.40
2018-10-05T02:22:38.114Z,3.40
2018-10-05T02:25:07.114Z,4.67
2018-10-05T02:27:36.456Z,4.70
2018-10-05T02:30:05.422Z,4.40
2018-10-05T02:32:34.365Z,7.53
2018-10-05T02:35:03.441Z,6.73
2018-10-05T02:37:32.509Z,4.30
2018-10-05T02:40:01.456Z,6.10
2018-10-05T02:42:30.657Z,7.63
2018-10-05T02:44:59.574Z,5.27
2018-10-05T02:47:28.500Z,5.30
2018-10-05T02:49:57.528Z,5.60
2018-10-05T02:52:26.492Z,7.23
2018-10-05T02:54:55.487Z,8.77
2018-10-05T02:57:24.868Z,7.07
2018-10-05T02:59:53.899Z,8.43
2018-10-05T03:02:31.472Z,4.83
2018-10-05T03:05:00.542Z,6.83
2018-10-05T03:07:30.566Z,5.90
2018-10-05T03:10:00.969Z,4.83
2018-10-05T03:12:30.342Z,6.63
2018-10-05T03:14:59.329Z,7.23
2018-10-05T03:17:28.441Z,4.03
2018-10-05T03:19:57.432Z,4.83
2018-10-05T03:22:26.466Z,5.67
2018-10-05T03:24:55.758Z,4.50
2018-10-05T03:27:24.604Z,5.70
2018-10-05T03:29:53.529Z,4.73
2018-10-05T03:32:22.527Z,7.37
2018-10-05T03:34:51.455Z,5.20
2018-10-05T03:37:20.337Z,8.43
2018-10-05T03:39:49.329Z,6.43
2018-10-05T03:42:18.288Z,6.20
2018-10-05T03:44:47.264Z,7.63
2018-10-05T03:47:16.484Z,6.13
2018-10-05T03:49:45.529Z,7.57
2018-10-05T03:52:14.424Z,6.53
2018-10-05T03:54:43.405Z,6.73
2018-10-05T03:57:12.331Z,4.87
2018-10-05T03:59:41.322Z,5.23
2018-10-05T04:02:10.239Z,5.30
2018-10-05T04:04:39.176Z,6.93
2018-10-05T04:07:08.150Z,8.37
2018-10-05T04:09:37.133Z,5.90
2018-10-05T04:12:06.022Z,7.83
2018-10-05T04:14:34.916Z,12.87
2018-10-05T04:17:03.832Z,8.63
2018-10-05T04:19:32.808Z,9.33
2018-10-05T04:22:01.745Z,6.13
2018-10-05T04:24:31.085Z,7.80
2018-10-05T04:27:00.106Z,6.60
2018-10-05T04:29:29.112Z,7.20
2018-10-05T04:31:58.094Z,8.17
2018-10-05T04:34:27.049Z,6.13
2018-10-05T04:36:56.039Z,6.13
2018-10-05T04:39:25.260Z,10.93
2018-10-05T04:41:54.177Z,7.13
2018-10-05T04:44:23.173Z,15.83
2018-10-05T04:46:52.245Z,11.03
2018-10-05T04:49:21.261Z,7.43
2018-10-05T04:51:50.228Z,8.53
2018-10-05T04:54:19.849Z,13.00
2018-10-05T04:56:48.869Z,15.00
2018-10-05T04:59:17.819Z,12.67
2018-10-05T05:01:46.872Z,9.97
2018-10-05T05:04:15.778Z,8.20
2018-10-05T05:06:44.773Z,16.93
2018-10-05T05:09:14.072Z,11.67
2018-10-05T05:11:42.981Z,7.80
2018-10-05T05:14:11.964Z,10.00
2018-10-05T05:16:40.965Z,11.80
2018-10-05T05:19:09.966Z,6.90
2018-10-05T05:21:38.923Z,21.37
2018-10-05T05:24:08.263Z,8.60
2018-10-05T05:26:37.265Z,17.63
2018-10-05T05:29:06.750Z,16.47
2018-10-05T05:31:35.882Z,19.50
2018-10-05T05:34:05.082Z,18.83
2018-10-05T05:36:34.081Z,22.10
2018-10-05T05:39:03.457Z,23.67
2018-10-05T05:41:32.485Z,22.37
2018-10-05T05:44:01.521Z,20.30
2018-10-05T05:46:30.613Z,19.77
2018-10-05T05:48:59.664Z,21.43
2018-10-05T05:51:28.638Z,24.10
2018-10-05T05:53:57.797Z,23.90
2018-10-05T05:56:26.958Z,25.13
2018-10-05T05:58:56.017Z,21.50
2018-10-05T06:01:25.015Z,23.37
2018-10-05T06:03:54.080Z,27.67
2018-10-05T06:06:23.078Z,26.63
2018-10-05T06:08:52.113Z,33.47
2018-10-05T06:11:20.995Z,26.70
2018-10-05T06:13:50.072Z,25.57
2018-10-05T06:16:19.119Z,26.40
2018-10-05T06:18:48.147Z,25.93
2018-10-05T06:21:17.165Z,26.83
2018-10-05T06:23:46.438Z,22.63
2018-10-05T06:26:15.407Z,26.50
2018-10-05T06:28:44.460Z,23.70
2018-10-05T06:31:13.584Z,25.83
2018-10-05T06:33:42.506Z,28.77
2018-10-05T06:36:11.538Z,27.03
2018-10-05T06:38:40.833Z,19.67
2018-10-05T06:41:09.755Z,16.50
2018-10-05T06:43:39.136Z,18.43
2018-10-05T06:46:09.172Z,13.00
2018-10-05T06:48:38.142Z,10.87
2018-10-05T06:51:07.311Z,12.93
2018-10-05T06:53:36.444Z,12.13
2018-10-05T06:56:05.532Z,9.40
2018-10-05T06:58:34.630Z,12.27
2018-10-05T07:01:03.983Z,10.03
2018-10-05T07:03:33.035Z,12.33
2018-10-05T07:06:01.975Z,8.67
2018-10-05T07:08:31.401Z,11.03
2018-10-05T07:11:00.527Z,11.53
2018-10-05T07:13:29.550Z,12.20
2018-10-05T07:15:58.880Z,11.80
2018-10-05T07:18:27.779Z,11.00
2018-10-05T07:20:57.548Z,14.13
2018-10-05T07:23:26.911Z,13.17
2018-10-05T07:25:55.853Z,12.50
2018-10-05T07:28:25.081Z,12.47
2018-10-05T07:30:54.198Z,9.17
2018-10-05T07:33:23.198Z,10.27
2018-10-05T07:35:52.416Z,9.73
2018-10-05T07:38:21.683Z,8.63
2018-10-05T07:40:50.739Z,9.03
2018-10-05T07:43:19.804Z,9.00
2018-10-05T07:45:49.104Z,12.00
2018-10-05T07:48:18.187Z,9.83
2018-10-05T07:50:47.186Z,11.53
2018-10-05T07:53:16.300Z,9.73
2018-10-05T07:55:45.360Z,10.93
2018-10-05T07:58:14.397Z,6.93
2018-10-05T08:00:43.654Z,7.97
2018-10-05T08:03:12.674Z,10.33
2018-10-05T08:05:42.211Z,12.03
2018-10-05T08:08:11.314Z,9.60
2018-10-05T08:10:40.946Z,9.50
2018-10-05T08:13:10.308Z,6.73
2018-10-05T08:15:39.720Z,6.43
2018-10-05T08:18:08.722Z,12.80
2018-10-05T08:20:37.706Z,8.87
2018-10-05T08:23:06.777Z,7.63
2018-10-05T08:25:35.777Z,6.80
2018-10-05T08:28:04.776Z,5.97
2018-10-05T08:30:33.994Z,6.43
2018-10-05T08:33:02.973Z,6.27
2018-10-05T08:35:31.880Z,5.40
2018-10-05T08:38:01.285Z,7.67
2018-10-05T08:40:30.304Z,6.67
2018-10-05T08:42:59.325Z,5.80
2018-10-05T08:45:28.347Z,6.07
2018-10-05T08:47:57.433Z,6.03
2018-10-05T08:50:26.441Z,7.80
2018-10-05T08:52:55.768Z,6.50
2018-10-05T08:55:24.743Z,6.07
2018-10-05T08:57:53.824Z,7.13
2018-10-05T09:00:23.025Z,7.63
2018-10-05T09:02:52.068Z,7.80
2018-10-05T09:05:21.962Z,7.07
2018-10-05T09:07:51.006Z,8.57
2018-10-05T09:10:20.069Z,8.07
2018-10-05T09:12:48.978Z,6.50
2018-10-05T09:15:18.499Z,10.50
2018-10-05T09:17:47.747Z,6.77
2018-10-05T09:20:16.725Z,8.10
2018-10-05T09:22:46.056Z,6.63
2018-10-05T09:25:15.456Z,8.63
2018-10-05T09:27:44.581Z,5.90
2018-10-05T09:30:13.716Z,8.93
2018-10-05T09:32:42.815Z,7.63
2018-10-05T09:35:11.851Z,6.80
2018-10-05T09:37:40.900Z,11.00
2018-10-05T09:40:10.360Z,8.77
2018-10-05T09:42:39.444Z,6.33
2018-10-05T09:45:10.223Z,9.63
2018-10-05T09:47:39.469Z,9.03
2018-10-05T09:50:08.520Z,7.40
2018-10-05T09:52:38.333Z,7.20
2018-10-05T09:55:07.413Z,10.10
2018-10-05T09:57:36.368Z,9.80
2018-10-05T10:00:06.437Z,7.47
2018-10-05T10:02:40.545Z,12.80
2018-10-05T10:05:09.745Z,8.10
2018-10-05T10:07:39.113Z,9.97
2018-10-05T10:10:08.620Z,6.13
2018-10-05T10:12:38.150Z,8.37
2018-10-05T10:15:07.201Z,9.47
2018-10-05T10:17:36.251Z,9.80
2018-10-05T10:20:05.894Z,10.17
2018-10-05T10:22:35.311Z,9.10
2018-10-05T10:25:04.414Z,7.00
2018-10-05T10:27:33.757Z,6.43
2018-10-05T10:30:02.815Z,7.87
2018-10-05T10:32:31.834Z,8.47
2018-10-05T10:35:01.098Z,19.77
2018-10-05T10:37:30.769Z,11.23
2018-10-05T10:39:59.830Z,10.00
2018-10-05T10:42:29.304Z,8.77
2018-10-05T10:44:58.748Z,9.53
2018-10-05T10:47:28.081Z,7.33
2018-10-05T10:49:57.236Z,8.13
2018-10-05T10:52:26.625Z,10.20
2018-10-05T10:54:55.698Z,6.60
2018-10-05T10:57:25.154Z,9.60
2018-10-05T10:59:54.091Z,11.37
2018-10-05T11:02:23.044Z,9.43
2018-10-05T11:04:52.608Z,8.50
2018-10-05T11:07:21.453Z,10.90
2018-10-05T11:09:50.360Z,8.13
2018-10-05T11:12:19.251Z,7.00
2018-10-05T11:14:48.179Z,7.77
2018-10-05T11:17:17.105Z,7.07
2018-10-05T11:19:46.782Z,10.63
2018-10-05T11:22:15.645Z,7.90
2018-10-05T11:24:45.086Z,6.40
2018-10-05T11:27:13.993Z,10.20
2018-10-05T11:29:42.934Z,7.93
2018-10-05T11:32:12.142Z,6.40
2018-10-05T11:34:41.359Z,10.93
2018-10-05T11:37:10.278Z,7.57
2018-10-05T11:39:39.155Z,10.10
2018-10-05T11:42:08.570Z,8.60
2018-10-05T11:44:37.420Z,10.73
2018-10-05T11:47:06.292Z,6.70
2018-10-05T11:49:35.334Z,8.10
2018-10-05T11:52:04.788Z,11.20
2018-10-05T11:54:33.612Z,7.00
2018-10-05T11:57:02.892Z,6.70
2018-10-05T11:59:31.785Z,6.57
2018-10-05T12:02:00.591Z,9.53
2018-10-05T12:04:29.784Z,7.77
2018-10-05T12:06:58.554Z,10.63
2018-10-05T12:09:27.431Z,5.60
2018-10-05T12:11:56.294Z,5.43
2018-10-05T12:14:25.118Z,8.50
2018-10-05T12:16:54.991Z,6.10
2018-10-05T12:19:23.966Z,5.30
2018-10-05T12:21:52.735Z,6.63
2018-10-05T12:24:21.487Z,6.83
2018-10-05T12:26:50.357Z,6.57
2018-10-05T12:29:19.215Z,4.37
2018-10-05T12:31:48.044Z,5.30
2018-10-05T12:34:17.209Z,6.60
2018-10-05T12:36:46.719Z,5.73
2018-10-05T12:39:16.546Z,5.30
2018-10-05T12:41:45.471Z,4.60
2018-10-05T12:44:15.173Z,7.10
2018-10-05T12:46:44.796Z,6.30
2018-10-05T12:49:14.597Z,4.10
2018-10-05T12:51:43.476Z,7.87
2018-10-05T12:54:12.310Z,6.17
2018-10-05T12:56:41.508Z,6.93
2018-10-05T12:59:10.436Z,7.07
2018-10-05T13:01:39.476Z,8.17
2018-10-05T13:04:08.687Z,5.67
2018-10-05T13:06:37.456Z,6.10
2018-10-05T13:09:08.244Z,5.83
2018-10-05T13:11:37.346Z,4.30
2018-10-05T13:14:07.132Z,4.77
2018-10-05T13:16:36.168Z,5.23
2018-10-05T13:19:05.223Z,8.27
2018-10-05T13:21:34.654Z,5.53
2018-10-05T13:24:04.573Z,7.27
2018-10-05T13:26:34.181Z,5.97
2018-10-05T13:29:03.618Z,6.53
2018-10-05T13:31:32.991Z,6.80
2018-10-05T13:34:02.014Z,4.13
2018-10-05T13:36:30.869Z,8.20
2018-10-05T13:38:59.793Z,4.50
2018-10-05T13:41:28.786Z,3.90
2018-10-05T13:43:57.661Z,4.23
2018-10-05T13:46:26.547Z,4.07
2018-10-05T13:48:55.444Z,7.97
2018-10-05T13:51:24.328Z,8.43
2018-10-05T13:53:53.195Z,5.27
2018-10-05T13:56:22.568Z,5.07
2018-10-05T13:58:51.790Z,4.27
2018-10-05T14:01:21.020Z,4.30
2018-10-05T14:03:50.273Z,4.20
2018-10-05T14:06:19.515Z,5.70
2018-10-05T14:08:48.501Z,8.53
2018-10-05T14:11:17.472Z,5.30
2018-10-05T14:13:46.448Z,4.63
2018-10-05T14:16:15.392Z,9.53
2018-10-05T14:18:45.906Z,6.90
2018-10-05T14:21:14.909Z,4.50
2018-10-05T14:23:43.744Z,7.73
2018-10-05T14:26:12.864Z,4.90
2018-10-05T14:28:41.742Z,6.17
2018-10-05T14:31:10.686Z,6.43
2018-10-05T14:33:39.667Z,6.30
2018-10-05T14:36:08.861Z,4.20
2018-10-05T14:38:37.786Z,5.53
2018-10-05T14:41:06.914Z,5.57
2018-10-05T14:43:35.867Z,5.07
2018-10-05T14:46:04.814Z,6.23
2018-10-05T14:48:34.021Z,3.87
2018-10-05T14:51:03.004Z,6.57
2018-10-05T14:53:31.913Z,5.97
2018-10-05T14:56:01.218Z,5.50
2018-10-05T14:58:30.243Z,7.77
2018-10-05T15:00:59.187Z,6.97
2018-10-05T15:03:28.295Z,7.10
2018-10-05T15:05:57.349Z,4.50
2018-10-05T15:08:26.297Z,7.20
2018-10-05T15:10:55.953Z,7.07
2018-10-05T15:13:24.869Z,7.83
2018-10-05T15:15:54.393Z,4.17
2018-10-05T15:18:23.725Z,7.00
2018-10-05T15:20:52.713Z,5.97
2018-10-05T15:23:21.644Z,6.07
2018-10-05T15:25:50.900Z,7.93
2018-10-05T15:28:19.764Z,6.83
2018-10-05T15:30:48.802Z,6.87
2018-10-05T15:33:18.062Z,6.53
2018-10-05T15:35:47.056Z,7.70
2018-10-05T15:38:15.987Z,5.50
2018-10-05T15:40:44.967Z,4.70
2018-10-05T15:43:13.767Z,5.17
2018-10-05T15:45:42.626Z,6.80
2018-10-05T15:48:11.587Z,6.00
2018-10-05T15:50:41.059Z,7.23
2018-10-05T15:53:09.915Z,6.03
2018-10-05T15:55:39.101Z,5.50
2018-10-05T15:58:08.415Z,4.83
2018-10-05T16:00:37.417Z,8.97
2018-10-05T16:03:06.749Z,4.53
2018-10-05T16:05:35.779Z,5.33
2018-10-05T16:08:04.600Z,7.43
2018-10-05T16:10:33.602Z,6.33
2018-10-05T16:13:02.896Z,7.93
2018-10-05T16:15:31.783Z,8.23
2018-10-05T16:18:02.382Z,7.73
2018-10-05T16:20:31.234Z,8.97
2018-10-05T16:23:00.189Z,8.13
2018-10-05T16:25:29.198Z,20.97
2018-10-05T16:27:58.467Z,10.17
2018-10-05T16:30:27.680Z,8.80
2018-10-05T16:32:57.401Z,7.27
2018-10-05T16:35:26.398Z,6.73
2018-10-05T16:37:55.375Z,5.60
2018-10-05T16:40:24.349Z,4.40
2018-10-05T16:42:53.996Z,5.27
2018-10-05T16:45:22.953Z,5.37
2018-10-05T16:47:51.944Z,4.30
2018-10-05T16:50:21.046Z,4.20
2018-10-05T16:52:50.311Z,5.77
2018-10-05T16:55:19.464Z,10.77
2018-10-05T16:57:48.448Z,5.63
2018-10-05T17:00:17.728Z,7.00
2018-10-05T17:02:46.859Z,8.70
2018-10-05T17:05:15.825Z,8.53
2018-10-05T17:07:44.801Z,12.03
2018-10-05T17:10:15.174Z,11.20
2018-10-05T17:12:44.156Z,8.33
2018-10-05T17:15:13.125Z,7.80
2018-10-05T17:17:42.068Z,10.50
2018-10-05T17:20:11.377Z,17.03
2018-10-05T17:22:40.391Z,19.93
2018-10-05T17:25:10.226Z,22.70
2018-10-05T17:27:39.387Z,23.27
2018-10-05T17:30:08.402Z,22.23
2018-10-05T17:32:37.715Z,22.27
2018-10-05T17:35:06.815Z,19.17
2018-10-05T17:37:35.846Z,14.53
2018-10-05T17:40:05.573Z,14.13
2018-10-05T17:42:34.586Z,15.23
2018-10-05T17:45:03.672Z,11.23
2018-10-05T17:47:33.037Z,8.53
2018-10-05T17:50:02.290Z,12.13
2018-10-05T17:52:31.453Z,10.03
2018-10-05T17:55:01.463Z,9.13
2018-10-05T17:57:31.895Z,8.53
2018-10-05T18:00:01.782Z,12.80
2018-10-05T18:02:31.886Z,9.07
2018-10-05T18:05:01.281Z,10.43
2018-10-05T18:07:32.922Z,8.93
2018-10-05T18:10:03.725Z,14.50
2018-10-05T18:12:33.402Z,8.77
2018-10-05T18:15:04.949Z,10.67
2018-10-05T18:17:34.586Z,6.57
2018-10-05T18:20:06.060Z,8.17
2018-10-05T18:22:38.709Z,6.97
2018-10-05T18:25:09.010Z,5.53
2018-10-05T18:27:41.189Z,6.07
2018-10-05T18:30:13.604Z,5.60
2018-10-05T18:32:45.818Z,5.00
2018-10-05T18:35:17.638Z,5.57
2018-10-05T18:37:48.620Z,7.47
2018-10-05T18:40:21.611Z,5.53
2018-10-05T18:42:52.363Z,5.57
2018-10-05T18:45:25.196Z,6.33
2018-10-05T18:47:57.336Z,4.97
2018-10-05T18:50:31.091Z,4.50
2018-10-05T18:53:02.773Z,8.93
2018-10-05T18:55:35.830Z,5.60
2018-10-05T18:58:08.604Z,8.60
2018-10-05T19:00:42.603Z,8.83
2018-10-05T19:03:15.541Z,9.40
2018-10-05T19:05:48.437Z,7.63
2018-10-05T19:08:20.885Z,5.97
2018-10-05T19:10:54.932Z,5.60
2018-10-05T19:13:27.447Z,6.83
2018-10-05T19:16:00.459Z,8.30
2018-10-05T19:18:32.186Z,6.60
2018-10-05T19:21:03.553Z,5.70
2018-10-05T19:23:34.686Z,6.97
2018-10-05T19:26:06.891Z,6.93
2018-10-05T19:28:41.084Z,6.83
2018-10-05T19:31:12.400Z,5.60
2018-10-05T19:33:41.817Z,5.63
2018-10-05T19:36:11.022Z,6.93
2018-10-05T19:38:40.491Z,7.27
2018-10-05T19:41:11.142Z,8.43
2018-10-05T19:43:40.451Z,8.80
2018-10-05T19:46:09.832Z,6.47
2018-10-05T19:48:39.025Z,6.57
2018-10-05T19:51:08.366Z,7.57
2018-10-05T19:53:37.444Z,9.43
2018-10-05T19:56:06.340Z,6.63
2018-10-05T19:58:35.427Z,11.10
2018-10-05T20:01:04.502Z,10.37
2018-10-05T20:03:33.793Z,10.00
2018-10-05T20:06:02.717Z,7.97
2018-10-05T20:08:31.595Z,6.60
2018-10-05T20:11:00.967Z,8.67
2018-10-05T20:13:29.880Z,10.40
2018-10-05T20:15:58.843Z,6.60
2018-10-05T20:18:28.196Z,8.17
2018-10-05T20:20:57.194Z,8.70
2018-10-05T20:23:26.395Z,10.43
2018-10-05T20:25:55.700Z,7.63
2018-10-05T20:28:24.808Z,8.00
2018-10-05T20:30:53.843Z,7.57
2018-10-05T20:33:23.091Z,8.17
2018-10-05T20:35:52.222Z,7.23
2018-10-05T20:38:21.109Z,9.77
2018-10-05T20:40:50.395Z,7.53
2018-10-05T20:43:19.250Z,7.60
2018-10-05T20:45:48.233Z,8.40
2018-10-05T20:48:17.432Z,10.17
2018-10-05T20:50:46.388Z,9.93
2018-10-05T20:53:15.310Z,7.90
2018-10-05T20:55:45.894Z,12.63
2018-10-05T20:58:15.192Z,8.00
2018-10-05T21:00:44.262Z,7.10
2018-10-05T21:03:13.330Z,7.07
2018-10-05T21:05:42.226Z,9.33
2018-10-05T21:08:11.241Z,6.50
2018-10-05T21:10:40.837Z,9.63
2018-10-05T21:13:09.793Z,6.10
2018-10-05T21:15:38.749Z,9.43
2018-10-05T21:18:07.868Z,6.93
2018-10-05T21:20:36.856Z,7.53
2018-10-05T21:23:06.037Z,9.93
2018-10-05T21:25:35.351Z,9.83
2018-10-05T21:28:04.249Z,10.43
2018-10-05T21:30:33.171Z,8.00
2018-10-05T21:33:03.313Z,9.57
2018-10-05T21:35:32.037Z,7.93
2018-10-05T21:38:00.991Z,7.57
2018-10-05T21:40:30.081Z,8.90
2018-10-05T21:42:59.039Z,9.53
2018-10-05T21:45:27.915Z,6.80
2018-10-05T21:47:57.586Z,8.30
2018-10-05T21:50:27.509Z,5.97
2018-10-05T21:52:56.452Z,7.77
2018-10-05T21:55:25.493Z,6.63
2018-10-05T21:57:54.487Z,7.10
2018-10-05T22:00:23.389Z,8.10
2018-10-05T22:02:52.331Z,11.10
2018-10-05T22:05:21.252Z,6.73
2018-10-05T22:07:50.338Z,7.80
2018-10-05T22:10:19.286Z,6.00
2018-10-05T22:12:48.271Z,7.27
2018-10-05T22:15:17.939Z,7.17
2018-10-05T22:17:47.049Z,7.80
2018-10-05T22:20:15.902Z,9.00
2018-10-05T22:22:44.817Z,6.37
2018-10-05T22:25:13.987Z,8.27
2018-10-05T22:27:43.325Z,9.77
2018-10-05T22:30:12.277Z,7.43
2018-10-05T22:32:41.288Z,10.27
2018-10-05T22:35:10.479Z,7.97
2018-10-05T22:37:39.588Z,9.00
2018-10-05T22:40:08.669Z,8.57
2018-10-05T22:42:37.605Z,8.67
2018-10-05T22:45:06.591Z,9.33
2018-10-05T22:47:35.881Z,9.03
2018-10-05T22:50:04.894Z,12.43
2018-10-05T22:52:33.855Z,7.03
2018-10-05T22:55:03.288Z,6.77
2018-10-05T22:57:32.214Z,6.83
2018-10-05T23:00:01.475Z,6.93
2018-10-05T23:02:31.008Z,7.63
2018-10-05T23:04:59.888Z,7.27
2018-10-05T23:07:28.909Z,7.80
2018-10-05T23:09:58.146Z,6.80
2018-10-05T23:12:26.996Z,7.93
2018-10-05T23:14:55.938Z,7.17
2018-10-05T23:17:25.117Z,7.50
2018-10-05T23:19:54.085Z,8.17
2018-10-05T23:22:23.341Z,10.13
2018-10-05T23:24:53.029Z,9.30
2018-10-05T23:27:21.872Z,7.43
2018-10-05T23:29:50.818Z,8.47
2018-10-05T23:32:20.142Z,9.30
2018-10-05T23:34:49.144Z,8.03
2018-10-05T23:37:18.170Z,9.13
2018-10-05T23:39:47.641Z,6.97
2018-10-05T23:42:16.559Z,7.60
2018-10-05T23:44:45.571Z,8.67
2018-10-05T23:47:14.589Z,9.40
2018-10-05T23:49:43.823Z,8.40
2018-10-05T23:52:52.634Z,7.93
2018-10-05T23:55:21.839Z,8.47
2018-10-05T23:57:50.724Z,8.20
